Current Weather

Patuxent River Nas/Trapnell Fld

Patuxent River, Maryland (KNHK)

Report from: Friday, April 19, 2024 5:52 AM EDT
Current time: Friday, April 19, 2024 6:06 AM EDT

Nearby weather – Weather history – Daily summaries
Weather forecast

Temperature11.7°C (53.1°F)
Dew point7.8°C (46.0°F)
Winds 6 kts (3.1 m/s, 6.9 mph) East (90°)
Visibility10 mi. (16.1 km)
Clouds Ceiling: Overcast 1,100 ft. (335 m)
Altimeter30.11 in.Hg (1020 mB)
Relative humidity77 %
Density altitude-456 ft. (-139 m)
Sea-level pressure102.0 kPa (1020 mB, 30.11 in.Hg)
Remarks System requires maintenance
Automated weather observing station with precipitation discriminator
Flight conditions Marginal Visual Meteorological Conditions
Raw dataKNHK 190952Z 09006KT 10SM OVC011 12/08 A3011 RMK AO2 SLP196 T01170078 $
An error has occurred. This application may no longer respond until reloaded. Reload 🗙